sensor_id;sensor_type;location;lat;lon;timestamp;pressure;altitude;pressure_sealevel;temperature;humidity
52307;BME280;38249;48.920;12.882;2022-12-18T00:00:05;98272.22;;;-0.54;50.78
52307;BME280;38249;48.920;12.882;2022-12-18T00:02:32;98272.38;;;-0.62;50.50
52307;BME280;38249;48.920;12.882;2022-12-18T00:04:58;98283.09;;;-0.64;50.23
52307;BME280;38249;48.920;12.882;2022-12-18T00:07:25;98278.91;;;-0.58;50.09
52307;BME280;38249;48.920;12.882;2022-12-18T00:09:51;98273.06;;;-0.53;49.77
52307;BME280;38249;48.920;12.882;2022-12-18T00:12:18;98279.13;;;-0.53;50.16
52307;BME280;38249;48.920;12.882;2022-12-18T00:14:46;98279.00;;;-0.38;50.23
52307;BME280;38249;48.920;12.882;2022-12-18T00:17:12;98273.28;;;-0.48;49.99
52307;BME280;38249;48.920;12.882;2022-12-18T00:19:39;98274.31;;;-0.43;50.24
52307;BME280;38249;48.920;12.882;2022-12-18T00:22:05;98276.97;;;-0.43;51.00
52307;BME280;38249;48.920;12.882;2022-12-18T00:24:32;98281.03;;;-0.40;50.23
52307;BME280;38249;48.920;12.882;2022-12-18T00:26:59;98290.81;;;-0.34;50.64
52307;BME280;38249;48.920;12.882;2022-12-18T00:29:25;98299.75;;;-0.28;50.88
52307;BME280;38249;48.920;12.882;2022-12-18T00:31:53;98299.00;;;-0.15;51.34
52307;BME280;38249;48.920;12.882;2022-12-18T00:34:20;98299.34;;;-0.25;51.29
52307;BME280;38249;48.920;12.882;2022-12-18T00:36:47;98297.84;;;-0.06;51.50
52307;BME280;38249;48.920;12.882;2022-12-18T00:39:14;98302.06;;;-0.12;50.73
52307;BME280;38249;48.920;12.882;2022-12-18T00:41:41;98292.16;;;-0.10;51.48
52307;BME280;38249;48.920;12.882;2022-12-18T00:44:25;98291.50;;;-0.12;51.35
52307;BME280;38249;48.920;12.882;2022-12-18T00:46:52;98287.13;;;0.02;51.36
52307;BME280;38249;48.920;12.882;2022-12-18T00:49:20;98292.97;;;-0.09;51.16
52307;BME280;38249;48.920;12.882;2022-12-18T00:51:47;98292.97;;;-0.09;51.52
52307;BME280;38249;48.920;12.882;2022-12-18T00:54:14;98292.75;;;-0.08;51.37
52307;BME280;38249;48.920;12.882;2022-12-18T00:56:40;98284.84;;;-0.08;51.62
52307;BME280;38249;48.920;12.882;2022-12-18T00:59:07;98293.56;;;-0.07;51.55
52307;BME280;38249;48.920;12.882;2022-12-18T01:01:34;98291.09;;;-0.15;52.23
52307;BME280;38249;48.920;12.882;2022-12-18T01:04:02;98289.09;;;-0.07;52.20
52307;BME280;38249;48.920;12.882;2022-12-18T01:06:29;98290.34;;;-0.38;52.40
52307;BME280;38249;48.920;12.882;2022-12-18T01:08:56;98283.81;;;-0.48;52.61
52307;BME280;38249;48.920;12.882;2022-12-18T01:11:23;98295.84;;;-0.67;52.37
52307;BME280;38249;48.920;12.882;2022-12-18T01:13:51;98290.97;;;-0.70;53.00
52307;BME280;38249;48.920;12.882;2022-12-18T01:16:18;98297.09;;;-0.92;53.19
52307;BME280;38249;48.920;12.882;2022-12-18T01:18:45;98300.81;;;-1.07;53.10
52307;BME280;38249;48.920;12.882;2022-12-18T01:21:14;98301.31;;;-0.97;52.69
52307;BME280;38249;48.920;12.882;2022-12-18T01:23:41;98301.88;;;-1.23;53.39
52307;BME280;38249;48.920;12.882;2022-12-18T01:26:09;98315.47;;;-1.20;52.71
52307;BME280;38249;48.920;12.882;2022-12-18T01:28:36;98304.75;;;-1.40;52.46
52307;BME280;38249;48.920;12.882;2022-12-18T01:31:14;98309.34;;;-1.27;52.61
52307;BME280;38249;48.920;12.882;2022-12-18T01:33:42;98304.81;;;-1.55;52.35
52307;BME280;38249;48.920;12.882;2022-12-18T01:36:16;98312.66;;;-1.40;51.95
52307;BME280;38249;48.920;12.882;2022-12-18T01:38:43;98322.81;;;-1.52;52.03
52307;BME280;38249;48.920;12.882;2022-12-18T01:41:10;98323.38;;;-1.41;51.68
52307;BME280;38249;48.920;12.882;2022-12-18T01:43:44;98319.38;;;-1.16;51.49
52307;BME280;38249;48.920;12.882;2022-12-18T01:46:11;98323.84;;;-1.31;51.83
52307;BME280;38249;48.920;12.882;2022-12-18T01:48:38;98320.91;;;-1.21;51.51
52307;BME280;38249;48.920;12.882;2022-12-18T01:51:07;98322.88;;;-1.08;51.09
52307;BME280;38249;48.920;12.882;2022-12-18T01:53:37;98321.88;;;-1.07;51.37
52307;BME280;38249;48.920;12.882;2022-12-18T01:56:05;98324.22;;;-1.13;50.72
52307;BME280;38249;48.920;12.882;2022-12-18T01:58:37;98313.84;;;-0.99;51.39
52307;BME280;38249;48.920;12.882;2022-12-18T02:01:06;98317.91;;;-1.18;51.12
52307;BME280;38249;48.920;12.882;2022-12-18T02:03:32;98316.75;;;-1.16;51.26
52307;BME280;38249;48.920;12.882;2022-12-18T02:06:01;98331.19;;;-1.05;51.19
52307;BME280;38249;48.920;12.882;2022-12-18T02:08:34;98321.38;;;-0.96;51.61
52307;BME280;38249;48.920;12.882;2022-12-18T02:11:08;98323.03;;;-0.88;51.55
52307;BME280;38249;48.920;12.882;2022-12-18T02:13:41;98323.91;;;-0.81;51.35
52307;BME280;38249;48.920;12.882;2022-12-18T02:16:19;98328.41;;;-0.75;51.31
52307;BME280;38249;48.920;12.882;2022-12-18T02:18:51;98324.16;;;-0.76;51.52
52307;BME280;38249;48.920;12.882;2022-12-18T02:21:27;98322.94;;;-0.74;51.29
52307;BME280;38249;48.920;12.882;2022-12-18T02:24:04;98325.38;;;-0.72;50.98
52307;BME280;38249;48.920;12.882;2022-12-18T02:26:43;98324.75;;;-0.74;51.48
52307;BME280;38249;48.920;12.882;2022-12-18T02:29:13;98320.91;;;-0.78;51.59
52307;BME280;38249;48.920;12.882;2022-12-18T02:31:45;98316.06;;;-0.75;51.54
52307;BME280;38249;48.920;12.882;2022-12-18T02:34:14;98310.19;;;-0.77;51.09
52307;BME280;38249;48.920;12.882;2022-12-18T02:36:43;98315.50;;;-0.70;51.13
52307;BME280;38249;48.920;12.882;2022-12-18T02:39:12;98328.84;;;-0.71;51.10
52307;BME280;38249;48.920;12.882;2022-12-18T02:41:41;98330.88;;;-0.67;51.67
52307;BME280;38249;48.920;12.882;2022-12-18T02:44:10;98329.88;;;-0.66;51.41
52307;BME280;38249;48.920;12.882;2022-12-18T02:46:39;98323.25;;;-0.62;51.53
52307;BME280;38249;48.920;12.882;2022-12-18T02:49:22;98340.19;;;-0.43;51.61
52307;BME280;38249;48.920;12.882;2022-12-18T02:51:54;98349.00;;;-0.57;51.69
52307;BME280;38249;48.920;12.882;2022-12-18T02:54:33;98345.22;;;-0.48;52.08
52307;BME280;38249;48.920;12.882;2022-12-18T02:57:10;98350.47;;;-0.48;52.12
52307;BME280;38249;48.920;12.882;2022-12-18T02:59:47;98343.34;;;-0.54;52.00
52307;BME280;38249;48.920;12.882;2022-12-18T03:02:20;98356.28;;;-0.59;52.18
52307;BME280;38249;48.920;12.882;2022-12-18T03:04:54;98346.34;;;-0.57;52.80
52307;BME280;38249;48.920;12.882;2022-12-18T03:07:39;98348.78;;;-0.56;52.44
52307;BME280;38249;48.920;12.882;2022-12-18T03:10:12;98347.38;;;-0.58;52.37
52307;BME280;38249;48.920;12.882;2022-12-18T03:12:43;98359.34;;;-0.56;52.50
52307;BME280;38249;48.920;12.882;2022-12-18T03:15:15;98359.94;;;-0.60;52.39
52307;BME280;38249;48.920;12.882;2022-12-18T03:17:46;98353.88;;;-0.54;52.91
52307;BME280;38249;48.920;12.882;2022-12-18T03:20:19;98363.66;;;-0.48;52.45
52307;BME280;38249;48.920;12.882;2022-12-18T03:22:47;98366.06;;;-0.53;52.43
52307;BME280;38249;48.920;12.882;2022-12-18T03:25:17;98368.69;;;-0.53;52.67
52307;BME280;38249;48.920;12.882;2022-12-18T03:27:49;98369.34;;;-0.44;52.17
52307;BME280;38249;48.920;12.882;2022-12-18T03:30:17;98368.63;;;-0.60;52.62
52307;BME280;38249;48.920;12.882;2022-12-18T03:32:47;98368.06;;;-0.55;52.51
52307;BME280;38249;48.920;12.882;2022-12-18T03:35:18;98367.19;;;-0.62;52.79
52307;BME280;38249;48.920;12.882;2022-12-18T03:37:46;98365.06;;;-0.74;52.22
52307;BME280;38249;48.920;12.882;2022-12-18T03:40:13;98359.59;;;-0.72;52.50
52307;BME280;38249;48.920;12.882;2022-12-18T03:42:46;98352.31;;;-0.48;52.47
52307;BME280;38249;48.920;12.882;2022-12-18T03:45:21;98357.56;;;-0.48;52.32
52307;BME280;38249;48.920;12.882;2022-12-18T03:47:55;98352.50;;;-0.50;51.86
52307;BME280;38249;48.920;12.882;2022-12-18T03:50:29;98351.25;;;-0.54;52.55
52307;BME280;38249;48.920;12.882;2022-12-18T03:53:00;98353.59;;;-0.38;51.79
52307;BME280;38249;48.920;12.882;2022-12-18T03:55:33;98359.28;;;-0.62;52.15
52307;BME280;38249;48.920;12.882;2022-12-18T03:58:03;98352.22;;;-0.62;52.11
52307;BME280;38249;48.920;12.882;2022-12-18T04:00:31;98358.63;;;-0.71;52.65
52307;BME280;38249;48.920;12.882;2022-12-18T04:02:59;98366.75;;;-0.66;52.23
52307;BME280;38249;48.920;12.882;2022-12-18T04:05:28;98363.31;;;-0.66;52.77
52307;BME280;38249;48.920;12.882;2022-12-18T04:07:56;98362.25;;;-0.72;52.24
52307;BME280;38249;48.920;12.882;2022-12-18T04:10:22;98366.50;;;-0.71;52.45
52307;BME280;38249;48.920;12.882;2022-12-18T04:12:49;98374.41;;;-0.71;51.95
52307;BME280;38249;48.920;12.882;2022-12-18T04:15:17;98370.47;;;-0.60;52.48
52307;BME280;38249;48.920;12.882;2022-12-18T04:17:47;98375.97;;;-0.55;52.87
52307;BME280;38249;48.920;12.882;2022-12-18T04:20:14;98373.78;;;-0.73;53.23
52307;BME280;38249;48.920;12.882;2022-12-18T04:22:42;98379.69;;;-0.71;52.32
52307;BME280;38249;48.920;12.882;2022-12-18T04:25:08;98386.97;;;-0.73;52.77
52307;BME280;38249;48.920;12.882;2022-12-18T04:27:35;98388.72;;;-0.80;52.74
52307;BME280;38249;48.920;12.882;2022-12-18T04:30:02;98391.41;;;-0.74;53.22
52307;BME280;38249;48.920;12.882;2022-12-18T04:32:30;98383.63;;;-0.60;52.67
52307;BME280;38249;48.920;12.882;2022-12-18T04:34:56;98393.66;;;-0.70;52.72
52307;BME280;38249;48.920;12.882;2022-12-18T04:37:23;98399.47;;;-0.75;52.37
52307;BME280;38249;48.920;12.882;2022-12-18T04:39:49;98405.34;;;-0.80;52.68
52307;BME280;38249;48.920;12.882;2022-12-18T04:42:16;98397.38;;;-0.86;52.92
52307;BME280;38249;48.920;12.882;2022-12-18T04:44:42;98398.19;;;-0.86;52.83
52307;BME280;38249;48.920;12.882;2022-12-18T04:47:09;98402.84;;;-0.88;52.93
52307;BME280;38249;48.920;12.882;2022-12-18T04:49:37;98399.28;;;-0.74;52.77
52307;BME280;38249;48.920;12.882;2022-12-18T04:52:06;98397.47;;;-0.95;52.50
52307;BME280;38249;48.920;12.882;2022-12-18T04:54:33;98398.69;;;-0.97;52.14
52307;BME280;38249;48.920;12.882;2022-12-18T04:57:00;98401.50;;;-0.99;52.07
52307;BME280;38249;48.920;12.882;2022-12-18T04:59:26;98403.50;;;-1.01;52.36
52307;BME280;38249;48.920;12.882;2022-12-18T05:01:53;98405.69;;;-1.04;51.96
52307;BME280;38249;48.920;12.882;2022-12-18T05:04:19;98405.78;;;-1.13;52.01
52307;BME280;38249;48.920;12.882;2022-12-18T05:06:47;98402.50;;;-1.00;52.32
52307;BME280;38249;48.920;12.882;2022-12-18T05:09:14;98400.59;;;-1.27;52.21
52307;BME280;38249;48.920;12.882;2022-12-18T05:11:40;98407.97;;;-1.38;52.09
52307;BME280;38249;48.920;12.882;2022-12-18T05:14:07;98399.09;;;-1.52;51.95
52307;BME280;38249;48.920;12.882;2022-12-18T05:16:33;98406.81;;;-1.65;52.22
52307;BME280;38249;48.920;12.882;2022-12-18T05:19:00;98405.66;;;-1.77;52.26
52307;BME280;38249;48.920;12.882;2022-12-18T05:21:26;98402.22;;;-1.93;51.93
52307;BME280;38249;48.920;12.882;2022-12-18T05:23:54;98415.25;;;-1.99;51.96
52307;BME280;38249;48.920;12.882;2022-12-18T05:26:21;98427.00;;;-2.25;52.04
52307;BME280;38249;48.920;12.882;2022-12-18T05:28:47;98421.53;;;-2.38;51.91
52307;BME280;38249;48.920;12.882;2022-12-18T05:31:14;98414.09;;;-2.50;51.34
52307;BME280;38249;48.920;12.882;2022-12-18T05:33:40;98411.44;;;-2.65;51.53
52307;BME280;38249;48.920;12.882;2022-12-18T05:36:09;98414.50;;;-2.61;51.54
52307;BME280;38249;48.920;12.882;2022-12-18T05:38:38;98414.47;;;-2.76;51.05
52307;BME280;38249;48.920;12.882;2022-12-18T05:41:07;98413.56;;;-2.83;51.01
52307;BME280;38249;48.920;12.882;2022-12-18T05:43:34;98410.69;;;-2.97;51.34
52307;BME280;38249;48.920;12.882;2022-12-18T05:46:04;98415.75;;;-2.95;50.91
52307;BME280;38249;48.920;12.882;2022-12-18T05:48:31;98412.47;;;-3.20;50.63
52307;BME280;38249;48.920;12.882;2022-12-18T05:51:04;98401.06;;;-3.04;50.42
52307;BME280;38249;48.920;12.882;2022-12-18T05:53:31;98397.66;;;-3.36;50.17
52307;BME280;38249;48.920;12.882;2022-12-18T05:56:00;98390.91;;;-3.30;50.37
52307;BME280;38249;48.920;12.882;2022-12-18T05:58:28;98399.97;;;-3.41;50.21
52307;BME280;38249;48.920;12.882;2022-12-18T06:00:54;98400.28;;;-3.67;50.76
52307;BME280;38249;48.920;12.882;2022-12-18T06:03:21;98407.66;;;-3.71;50.65
52307;BME280;38249;48.920;12.882;2022-12-18T06:05:48;98408.47;;;-3.71;50.61
52307;BME280;38249;48.920;12.882;2022-12-18T06:08:14;98411.09;;;-3.71;50.68
52307;BME280;38249;48.920;12.882;2022-12-18T06:10:41;98416.97;;;-3.69;50.74
52307;BME280;38249;48.920;12.882;2022-12-18T06:13:08;98420.09;;;-3.73;50.54
52307;BME280;38249;48.920;12.882;2022-12-18T06:15:37;98411.84;;;-3.62;50.60
52307;BME280;38249;48.920;12.882;2022-12-18T06:18:04;98407.22;;;-3.83;51.09
52307;BME280;38249;48.920;12.882;2022-12-18T06:20:30;98415.59;;;-3.88;51.02
52307;BME280;38249;48.920;12.882;2022-12-18T06:22:57;98411.47;;;-3.90;50.75
52307;BME280;38249;48.920;12.882;2022-12-18T06:25:23;98426.09;;;-3.96;50.30
52307;BME280;38249;48.920;12.882;2022-12-18T06:27:50;98434.44;;;-4.00;50.66
52307;BME280;38249;48.920;12.882;2022-12-18T06:30:17;98443.75;;;-4.06;50.88
52307;BME280;38249;48.920;12.882;2022-12-18T06:32:45;98440.16;;;-3.97;50.67
52307;BME280;38249;48.920;12.882;2022-12-18T06:35:11;98439.69;;;-4.09;50.73
52307;BME280;38249;48.920;12.882;2022-12-18T06:37:38;98442.78;;;-4.05;50.54
52307;BME280;38249;48.920;12.882;2022-12-18T06:40:05;98439.19;;;-3.96;50.30
52307;BME280;38249;48.920;12.882;2022-12-18T06:42:32;98432.47;;;-4.07;50.75
52307;BME280;38249;48.920;12.882;2022-12-18T06:44:59;98430.19;;;-4.10;50.58
52307;BME280;38249;48.920;12.882;2022-12-18T06:47:25;98434.47;;;-4.09;50.77
52307;BME280;38249;48.920;12.882;2022-12-18T06:49:53;98437.84;;;-3.92;50.63
52307;BME280;38249;48.920;12.882;2022-12-18T06:52:20;98435.44;;;-4.10;50.98
52307;BME280;38249;48.920;12.882;2022-12-18T06:54:46;98440.84;;;-4.11;50.87
52307;BME280;38249;48.920;12.882;2022-12-18T06:57:13;98445.91;;;-4.10;50.94
52307;BME280;38249;48.920;12.882;2022-12-18T06:59:39;98445.91;;;-4.10;50.54
52307;BME280;38249;48.920;12.882;2022-12-18T07:02:06;98440.69;;;-4.18;50.72
52307;BME280;38249;48.920;12.882;2022-12-18T07:04:32;98447.91;;;-4.20;50.96
52307;BME280;38249;48.920;12.882;2022-12-18T07:07:00;98453.44;;;-4.07;50.86
52307;BME280;38249;48.920;12.882;2022-12-18T07:09:27;98458.84;;;-4.16;50.76
52307;BME280;38249;48.920;12.882;2022-12-18T07:11:53;98466.84;;;-4.10;50.51
52307;BME280;38249;48.920;12.882;2022-12-18T07:14:20;98470.28;;;-4.09;50.65
52307;BME280;38249;48.920;12.882;2022-12-18T07:16:47;98476.19;;;-4.07;50.47
52307;BME280;38249;48.920;12.882;2022-12-18T07:19:14;98481.94;;;-4.12;50.63
52307;BME280;38249;48.920;12.882;2022-12-18T07:21:40;98480.91;;;-4.11;50.81
52307;BME280;38249;48.920;12.882;2022-12-18T07:24:08;98483.88;;;-3.97;51.04
52307;BME280;38249;48.920;12.882;2022-12-18T07:26:35;98477.19;;;-4.16;50.51
52307;BME280;38249;48.920;12.882;2022-12-18T07:29:01;98480.91;;;-4.11;50.70
52307;BME280;38249;48.920;12.882;2022-12-18T07:31:28;98478.97;;;-4.09;50.57
52307;BME280;38249;48.920;12.882;2022-12-18T07:33:54;98476.03;;;-4.06;50.59
52307;BME280;38249;48.920;12.882;2022-12-18T07:36:21;98476.69;;;-4.03;50.53
52307;BME280;38249;48.920;12.882;2022-12-18T07:38:48;98472.91;;;-3.93;50.72
52307;BME280;38249;48.920;12.882;2022-12-18T07:41:16;98484.31;;;-3.77;50.90
52307;BME280;38249;48.920;12.882;2022-12-18T07:43:44;98485.41;;;-3.63;50.37
52307;BME280;38249;48.920;12.882;2022-12-18T07:46:11;98484.16;;;-3.36;50.01
52307;BME280;38249;48.920;12.882;2022-12-18T07:48:39;98494.25;;;-3.17;49.56
52307;BME280;38249;48.920;12.882;2022-12-18T07:51:06;98491.84;;;-2.95;49.45
52307;BME280;38249;48.920;12.882;2022-12-18T07:53:34;98498.50;;;-2.84;49.55
52307;BME280;38249;48.920;12.882;2022-12-18T07:56:03;98502.47;;;-2.88;49.82
52307;BME280;38249;48.920;12.882;2022-12-18T07:58:32;98495.81;;;-2.99;49.75
52307;BME280;38249;48.920;12.882;2022-12-18T08:01:03;98489.31;;;-3.11;49.63
52307;BME280;38249;48.920;12.882;2022-12-18T08:03:30;98506.69;;;-3.50;49.60
52307;BME280;38249;48.920;12.882;2022-12-18T08:05:59;98509.25;;;-3.34;49.59
52307;BME280;38249;48.920;12.882;2022-12-18T08:08:25;98507.50;;;-3.50;49.75
52307;BME280;38249;48.920;12.882;2022-12-18T08:10:52;98499.94;;;-3.44;49.77
52307;BME280;38249;48.920;12.882;2022-12-18T08:13:18;98497.63;;;-3.39;49.63
52307;BME280;38249;48.920;12.882;2022-12-18T08:15:46;98498.69;;;-3.17;49.44
52307;BME280;38249;48.920;12.882;2022-12-18T08:18:13;98500.66;;;-3.19;49.71
52307;BME280;38249;48.920;12.882;2022-12-18T08:20:42;98498.03;;;-2.88;49.62
52307;BME280;38249;48.920;12.882;2022-12-18T08:23:09;98493.66;;;-2.96;49.82
52307;BME280;38249;48.920;12.882;2022-12-18T08:25:36;98502.06;;;-2.77;49.46
52307;BME280;38249;48.920;12.882;2022-12-18T08:28:02;98506.00;;;-2.50;49.63
52307;BME280;38249;48.920;12.882;2022-12-18T08:30:29;98504.00;;;-2.25;49.53
52307;BME280;38249;48.920;12.882;2022-12-18T08:32:57;98496.19;;;-1.80;49.54
52307;BME280;38249;48.920;12.882;2022-12-18T08:35:24;98500.22;;;-1.54;49.30
52307;BME280;38249;48.920;12.882;2022-12-18T08:37:52;98494.19;;;-1.18;49.07
52307;BME280;38249;48.920;12.882;2022-12-18T08:40:18;98499.94;;;-0.78;48.69
52307;BME280;38249;48.920;12.882;2022-12-18T08:42:45;98501.06;;;-0.44;48.00
52307;BME280;38249;48.920;12.882;2022-12-18T08:45:34;98508.38;;;0.04;47.51
52307;BME280;38249;48.920;12.882;2022-12-18T08:48:02;98515.94;;;0.42;46.42
52307;BME280;38249;48.920;12.882;2022-12-18T08:50:29;98518.03;;;0.53;46.87
52307;BME280;38249;48.920;12.882;2022-12-18T08:52:55;98529.75;;;0.79;46.33
52307;BME280;38249;48.920;12.882;2022-12-18T08:55:22;98548.72;;;0.96;46.87
52307;BME280;38249;48.920;12.882;2022-12-18T08:57:49;98542.91;;;1.14;46.56
52307;BME280;38249;48.920;12.882;2022-12-18T09:00:16;98547.22;;;1.28;45.92
52307;BME280;38249;48.920;12.882;2022-12-18T09:02:43;98547.38;;;1.13;46.21
52307;BME280;38249;48.920;12.882;2022-12-18T09:05:11;98558.22;;;1.38;45.42
52307;BME280;38249;48.920;12.882;2022-12-18T09:07:37;98552.56;;;1.48;46.08
52307;BME280;38249;48.920;12.882;2022-12-18T09:10:05;98555.28;;;1.88;46.05
52307;BME280;38249;48.920;12.882;2022-12-18T09:12:32;98553.28;;;2.17;45.16
52307;BME280;38249;48.920;12.882;2022-12-18T09:14:58;98550.00;;;2.42;44.97
52307;BME280;38249;48.920;12.882;2022-12-18T09:17:25;98550.56;;;2.70;44.13
52307;BME280;38249;48.920;12.882;2022-12-18T09:19:51;98549.13;;;2.74;43.62
52307;BME280;38249;48.920;12.882;2022-12-18T09:22:19;98554.75;;;3.11;43.56
52307;BME280;38249;48.920;12.882;2022-12-18T09:24:46;98546.22;;;3.48;42.98
52307;BME280;38249;48.920;12.882;2022-12-18T09:27:12;98541.06;;;3.92;42.47
52307;BME280;38249;48.920;12.882;2022-12-18T09:29:39;98542.09;;;4.16;41.54
52307;BME280;38249;48.920;12.882;2022-12-18T09:32:05;98537.00;;;4.14;41.95
52307;BME280;38249;48.920;12.882;2022-12-18T09:34:32;98543.75;;;4.10;41.83
52307;BME280;38249;48.920;12.882;2022-12-18T09:36:58;98541.56;;;4.32;41.85
52307;BME280;38249;48.920;12.882;2022-12-18T09:39:26;98536.84;;;4.53;41.51
52307;BME280;38249;48.920;12.882;2022-12-18T09:41:54;98536.09;;;4.89;40.56
52307;BME280;38249;48.920;12.882;2022-12-18T09:44:24;98537.34;;;5.05;40.38
52307;BME280;38249;48.920;12.882;2022-12-18T09:47:03;98535.28;;;5.07;38.89
52307;BME280;38249;48.920;12.882;2022-12-18T09:49:33;98536.16;;;5.01;39.80
52307;BME280;38249;48.920;12.882;2022-12-18T09:52:04;98529.25;;;5.30;39.33
52307;BME280;38249;48.920;12.882;2022-12-18T09:54:38;98533.63;;;5.55;39.04
52307;BME280;38249;48.920;12.882;2022-12-18T09:57:06;98527.84;;;5.88;39.27
52307;BME280;38249;48.920;12.882;2022-12-18T09:59:42;98524.81;;;6.39;38.11
52307;BME280;38249;48.920;12.882;2022-12-18T10:02:15;98514.59;;;6.83;37.58
52307;BME280;38249;48.920;12.882;2022-12-18T10:04:43;98515.34;;;7.07;37.36
52307;BME280;38249;48.920;12.882;2022-12-18T10:07:14;98514.41;;;7.42;37.39
52307;BME280;38249;48.920;12.882;2022-12-18T10:09:51;98508.78;;;7.56;36.47
52307;BME280;38249;48.920;12.882;2022-12-18T10:12:25;98513.09;;;7.74;35.94
52307;BME280;38249;48.920;12.882;2022-12-18T10:14:57;98501.16;;;7.93;36.48
52307;BME280;38249;48.920;12.882;2022-12-18T10:17:35;98494.84;;;7.99;36.00
52307;BME280;38249;48.920;12.882;2022-12-18T10:20:13;98498.00;;;8.30;35.57
52307;BME280;38249;48.920;12.882;2022-12-18T10:22:48;98499.03;;;8.63;35.14
52307;BME280;38249;48.920;12.882;2022-12-18T10:25:22;98501.91;;;8.78;34.60
52307;BME280;38249;48.920;12.882;2022-12-18T10:27:53;98497.06;;;8.97;34.29
52307;BME280;38249;48.920;12.882;2022-12-18T10:30:23;98494.13;;;8.99;33.77
52307;BME280;38249;48.920;12.882;2022-12-18T10:32:50;98497.50;;;9.11;33.46
52307;BME280;38249;48.920;12.882;2022-12-18T10:35:19;98493.94;;;9.28;33.04
52307;BME280;38249;48.920;12.882;2022-12-18T10:38:06;98494.50;;;9.57;32.37
52307;BME280;38249;48.920;12.882;2022-12-18T10:40:49;98496.16;;;9.36;32.17
52307;BME280;38249;48.920;12.882;2022-12-18T10:43:20;98495.44;;;9.18;33.05
52307;BME280;38249;48.920;12.882;2022-12-18T10:46:12;98486.09;;;9.21;33.06
52307;BME280;38249;48.920;12.882;2022-12-18T10:48:49;98490.81;;;9.14;32.88
52307;BME280;38249;48.920;12.882;2022-12-18T10:51:22;98489.03;;;9.20;32.88
52307;BME280;38249;48.920;12.882;2022-12-18T10:53:54;98482.28;;;9.39;32.78
52307;BME280;38249;48.920;12.882;2022-12-18T10:56:24;98470.94;;;9.32;33.12
52307;BME280;38249;48.920;12.882;2022-12-18T10:58:58;98476.00;;;9.83;32.29
52307;BME280;38249;48.920;12.882;2022-12-18T11:01:26;98466.84;;;10.11;31.97
52307;BME280;38249;48.920;12.882;2022-12-18T11:04:01;98464.25;;;10.26;31.08
52307;BME280;38249;48.920;12.882;2022-12-18T11:06:28;98467.34;;;10.40;31.69
52307;BME280;38249;48.920;12.882;2022-12-18T11:09:00;98460.03;;;10.83;31.12
52307;BME280;38249;48.920;12.882;2022-12-18T11:11:29;98461.00;;;11.25;31.06
52307;BME280;38249;48.920;12.882;2022-12-18T11:13:59;98458.84;;;11.22;30.91
52307;BME280;38249;48.920;12.882;2022-12-18T11:16:28;98461.00;;;11.25;31.10
52307;BME280;38249;48.920;12.882;2022-12-18T11:19:20;98444.94;;;11.51;30.09
52307;BME280;38249;48.920;12.882;2022-12-18T11:21:49;98446.75;;;11.19;30.83
52307;BME280;38249;48.920;12.882;2022-12-18T11:24:20;98449.22;;;11.47;30.47
52307;BME280;38249;48.920;12.882;2022-12-18T11:26:50;98448.16;;;11.63;30.60
52307;BME280;38249;48.920;12.882;2022-12-18T11:29:20;98450.56;;;11.65;30.18
52307;BME280;38249;48.920;12.882;2022-12-18T11:31:49;98449.25;;;11.72;29.95
52307;BME280;38249;48.920;12.882;2022-12-18T11:34:19;98443.88;;;11.83;29.64
52307;BME280;38249;48.920;12.882;2022-12-18T11:36:49;98450.03;;;11.47;29.84
52307;BME280;38249;48.920;12.882;2022-12-18T11:39:18;98437.94;;;11.45;30.06
52307;BME280;38249;48.920;12.882;2022-12-18T11:41:52;98440.88;;;11.38;29.27
52307;BME280;38249;48.920;12.882;2022-12-18T11:44:42;98447.63;;;11.56;29.97
52307;BME280;38249;48.920;12.882;2022-12-18T11:47:18;98458.03;;;11.27;30.00
52307;BME280;38249;48.920;12.882;2022-12-18T11:49:49;98456.06;;;11.01;30.51
52307;BME280;38249;48.920;12.882;2022-12-18T11:52:19;98468.19;;;11.14;30.24
52307;BME280;38249;48.920;12.882;2022-12-18T11:54:51;98470.81;;;10.89;30.22
52307;BME280;38249;48.920;12.882;2022-12-18T11:57:27;98458.34;;;10.67;30.64
52307;BME280;38249;48.920;12.882;2022-12-18T12:00:03;98455.94;;;10.66;30.56
52307;BME280;38249;48.920;12.882;2022-12-18T12:02:46;98455.50;;;10.89;30.23
52307;BME280;38249;48.920;12.882;2022-12-18T12:05:24;98462.03;;;11.09;30.28
52307;BME280;38249;48.920;12.882;2022-12-18T12:08:00;98450.00;;;11.27;30.11
52307;BME280;38249;48.920;12.882;2022-12-18T12:10:41;98452.47;;;11.69;29.63
52307;BME280;38249;48.920;12.882;2022-12-18T12:13:27;98454.00;;;11.24;29.64
52307;BME280;38249;48.920;12.882;2022-12-18T12:16:15;98456.38;;;11.05;29.15
52307;BME280;38249;48.920;12.882;2022-12-18T12:18:54;98459.09;;;11.21;30.48
52307;BME280;38249;48.920;12.882;2022-12-18T12:21:26;98468.72;;;11.11;30.33
52307;BME280;38249;48.920;12.882;2022-12-18T12:24:00;98466.91;;;10.64;30.40
52307;BME280;38249;48.920;12.882;2022-12-18T12:26:35;98462.59;;;10.53;30.79
52307;BME280;38249;48.920;12.882;2022-12-18T12:29:21;98465.88;;;10.27;30.14
52307;BME280;38249;48.920;12.882;2022-12-18T12:32:04;98478.28;;;10.34;30.88
52307;BME280;38249;48.920;12.882;2022-12-18T12:34:38;98472.06;;;9.96;31.03
52307;BME280;38249;48.920;12.882;2022-12-18T12:37:21;98469.59;;;9.89;31.27
52307;BME280;38249;48.920;12.882;2022-12-18T12:39:54;98475.44;;;10.18;31.33
52307;BME280;38249;48.920;12.882;2022-12-18T12:42:29;98468.50;;;10.17;30.44
52307;BME280;38249;48.920;12.882;2022-12-18T12:45:18;98461.53;;;10.21;31.09
52307;BME280;38249;48.920;12.882;2022-12-18T12:47:49;98454.38;;;9.89;31.49
52307;BME280;38249;48.920;12.882;2022-12-18T12:50:19;98447.88;;;9.85;31.72
52307;BME280;38249;48.920;12.882;2022-12-18T12:52:48;98428.31;;;9.47;32.26
52307;BME280;38249;48.920;12.882;2022-12-18T12:55:19;98427.88;;;9.33;32.33
52307;BME280;38249;48.920;12.882;2022-12-18T12:57:55;98435.31;;;9.26;32.61
52307;BME280;38249;48.920;12.882;2022-12-18T13:00:25;98432.41;;;9.28;32.80
52307;BME280;38249;48.920;12.882;2022-12-18T13:03:03;98421.56;;;8.90;32.82
52307;BME280;38249;48.920;12.882;2022-12-18T13:05:38;98413.28;;;8.70;33.18